Time;durP1;ratioP1;P1;durP2;ratioP2;P2;SDS_P1;SDS_P2;PMS_P1;PMS_P2;Temp;Humidity;BMP_temperature;BMP_pressure;BME280_temperature;BME280_humidity;BME280_pressure;Samples;Min_cycle;Max_cycle;Signal;HPM_P1;HPM_P2
2021/10/22 00:01:12;;;;;;;6.22;1.10;;;7.00;99.90;;;;;;6189734;23;20004;-92
2021/10/22 00:04:01;;;;;;;7.18;1.30;;;7.00;99.90;;;;;;6165634;23;20050;-93
2021/10/22 00:06:27;;;;;;;7.55;1.65;;;7.10;99.90;;;;;;6215298;23;20023;-93
2021/10/22 00:08:54;;;;;;;9.98;2.28;;;7.10;99.90;;;;;;6215082;23;20372;-92
2021/10/22 00:11:24;;;;;;;7.30;1.30;;;7.10;99.90;;;;;;6214597;23;20404;-94
2021/10/22 00:13:57;;;;;;;7.90;1.30;;;7.10;99.90;;;;;;6190720;23;20012;-92
2021/10/22 00:16:28;;;;;;;7.60;1.27;;;7.10;99.90;;;;;;6191103;23;20043;-92
2021/10/22 00:19:06;;;;;;;8.88;1.50;;;7.10;99.90;;;;;;6217827;23;20043;-94
2021/10/22 00:21:37;;;;;;;4.50;1.15;;;7.10;99.90;;;;;;6215730;23;20308;-93
2021/10/22 00:24:12;;;;;;;4.55;0.93;;;7.10;99.90;;;;;;6215143;23;20424;-92
2021/10/22 00:26:39;;;;;;;7.65;1.67;;;7.00;99.90;;;;;;6188847;23;20012;-93
2021/10/22 00:29:08;;;;;;;6.57;1.38;;;7.00;99.90;;;;;;6214812;23;20008;-91
2021/10/22 00:31:34;;;;;;;7.95;1.33;;;6.90;99.90;;;;;;6215003;23;20000;-92
2021/10/22 00:34:01;;;;;;;6.53;1.08;;;6.90;99.90;;;;;;6215125;23;20405;-92
2021/10/22 00:36:48;;;;;;;8.60;0.98;;;6.90;99.90;;;;;;6189523;23;20028;-92
2021/10/22 00:39:16;;;;;;;7.18;1.13;;;6.90;99.90;;;;;;6189885;23;20094;-92
2021/10/22 00:41:45;;;;;;;7.75;1.52;;;7.00;99.90;;;;;;6189907;23;20519;-92
2021/10/22 00:44:12;;;;;;;7.25;1.50;;;7.00;99.90;;;;;;6214483;23;20001;-91
2021/10/22 00:46:42;;;;;;;4.85;1.15;;;6.90;99.90;;;;;;6214130;23;20066;-93
2021/10/22 00:49:12;;;;;;;4.32;1.10;;;6.90;99.90;;;;;;6214739;23;20015;-92
2021/10/22 00:51:43;;;;;;;9.38;1.42;;;6.90;99.90;;;;;;6188237;23;20015;-91
2021/10/22 00:54:21;;;;;;;4.47;1.00;;;6.80;99.90;;;;;;6189391;23;20037;-92
2021/10/22 00:56:49;;;;;;;9.65;1.63;;;6.80;99.90;;;;;;6192846;23;20067;-91
2021/10/22 00:59:17;;;;;;;9.32;1.65;;;6.70;99.90;;;;;;6198014;23;20004;-90
2021/10/22 01:02:06;;;;;;;7.70;1.35;;;6.80;99.90;;;;;;6222765;23;20075;-91
2021/10/22 01:04:35;;;;;;;9.57;1.60;;;6.70;99.90;;;;;;6222683;23;20303;-90
2021/10/22 01:07:07;;;;;;;9.15;1.80;;;6.70;99.90;;;;;;6197581;23;20003;-91
2021/10/22 01:09:34;;;;;;;10.95;1.83;;;6.70;99.90;;;;;;6222759;23;20019;-90
2021/10/22 01:12:03;;;;;;;5.75;1.40;;;6.70;99.90;;;;;;6222324;23;19992;-90
2021/10/22 01:14:37;;;;;;;10.77;1.90;;;6.70;99.90;;;;;;6249309;23;20073;-92
2021/10/22 01:17:06;;;;;;;6.78;1.60;;;6.60;99.90;;;;;;6249560;23;20004;-91
2021/10/22 01:19:33;;;;;;;7.55;1.95;;;6.60;99.90;;;;;;6222616;23;20035;-92
2021/10/22 01:22:03;;;;;;;6.03;1.80;;;6.60;99.90;;;;;;6196333;23;20004;-92
2021/10/22 01:24:32;;;;;;;10.75;2.08;;;6.60;99.90;;;;;;6247105;23;20012;-91
2021/10/22 01:27:07;;;;;;;7.53;1.60;;;6.60;99.90;;;;;;6196643;23;20011;-90
2021/10/22 01:29:37;;;;;;;9.48;1.92;;;6.50;99.90;;;;;;6222190;23;20440;-90
2021/10/22 01:32:06;;;;;;;10.65;1.70;;;6.50;99.90;;;;;;6172417;23;20001;-91
2021/10/22 01:34:35;;;;;;;7.60;1.70;;;6.60;99.90;;;;;;6197211;23;20004;-91
2021/10/22 01:37:03;;;;;;;10.43;1.65;;;6.50;99.90;;;;;;6221591;23;20008;-91
2021/10/22 01:39:32;;;;;;;6.72;1.65;;;6.50;99.90;;;;;;6248420;22;19997;-94
2021/10/22 01:41:57;;;;;;;9.35;1.92;;;6.50;99.90;;;;;;6221283;23;20031;-92
2021/10/22 01:44:25;;;;;;;7.82;2.67;;;6.50;99.90;;;;;;6222004;23;20409;-92
2021/10/22 01:46:55;;;;;;;8.00;2.08;;;6.50;99.90;;;;;;6221910;23;20000;-92
2021/10/22 01:49:21;;;;;;;9.45;2.33;;;6.50;99.90;;;;;;6172626;23;20066;-91
2021/10/22 01:51:49;;;;;;;7.22;1.73;;;6.40;99.90;;;;;;6246972;23;20004;-92
2021/10/22 01:54:17;;;;;;;5.55;1.60;;;6.40;99.90;;;;;;6247736;23;20000;-91
2021/10/22 01:56:46;;;;;;;6.43;1.50;;;6.30;99.90;;;;;;6221505;23;20095;-91
2021/10/22 01:59:23;;;;;;;13.27;2.60;;;6.30;99.90;;;;;;6196014;23;20007;-92
2021/10/22 02:01:53;;;;;;;7.82;2.05;;;6.30;99.90;;;;;;6247347;23;20008;-92
2021/10/22 02:04:21;;;;;;;11.13;1.75;;;6.40;99.90;;;;;;6196956;23;20102;-91
2021/10/22 02:06:51;;;;;;;11.88;2.35;;;6.30;99.90;;;;;;6221403;23;20007;-91
2021/10/22 02:09:22;;;;;;;5.88;1.70;;;6.30;99.90;;;;;;6196665;23;20008;-92
2021/10/22 02:11:48;;;;;;;15.00;2.28;;;6.30;99.90;;;;;;6222171;23;20023;-91
2021/10/22 02:14:20;;;;;;;9.20;2.17;;;6.30;99.90;;;;;;6196704;23;20003;-92
2021/10/22 02:16:48;;;;;;;6.30;1.60;;;6.30;99.90;;;;;;6221992;23;20000;-92
2021/10/22 02:19:19;;;;;;;7.88;1.95;;;6.20;99.90;;;;;;6222224;23;20008;-91
2021/10/22 02:21:46;;;;;;;12.77;1.98;;;6.20;99.90;;;;;;6196260;23;20009;-91
2021/10/22 02:24:13;;;;;;;10.73;1.73;;;6.20;99.90;;;;;;6196500;23;20015;-92
2021/10/22 02:26:40;;;;;;;7.10;1.60;;;6.20;99.90;;;;;;6195387;23;20004;-91
2021/10/22 02:29:08;;;;;;;5.63;1.60;;;6.20;99.90;;;;;;6196323;23;20000;-91
2021/10/22 02:31:34;;;;;;;10.07;2.03;;;6.20;99.90;;;;;;6195504;23;20008;-92
2021/10/22 02:34:04;;;;;;;9.77;2.00;;;6.20;99.90;;;;;;6220296;23;20000;-92
2021/10/22 02:36:34;;;;;;;10.07;1.85;;;6.20;99.90;;;;;;6221754;23;20036;-92
2021/10/22 02:39:04;;;;;;;9.73;1.95;;;6.20;99.90;;;;;;6221664;23;19996;-92
2021/10/22 02:41:32;;;;;;;6.40;1.67;;;6.20;99.90;;;;;;6221371;23;20016;-91
2021/10/22 02:44:02;;;;;;;7.05;1.40;;;6.20;99.90;;;;;;6196594;23;19996;-91
2021/10/22 02:46:31;;;;;;;7.47;1.95;;;6.20;99.90;;;;;;6220259;23;20003;-91
2021/10/22 02:48:59;;;;;;;7.85;1.80;;;6.10;99.90;;;;;;6221370;23;20003;-91
2021/10/22 02:51:30;;;;;;;6.88;2.58;;;6.10;99.90;;;;;;6222244;23;20007;-91
2021/10/22 02:54:17;;;;;;;10.05;1.80;;;6.10;99.90;;;;;;6248023;23;20004;-90
2021/10/22 02:56:45;;;;;;;9.95;1.90;;;6.10;99.90;;;;;;6221612;23;20011;-90
2021/10/22 02:59:10;;;;;;;8.40;1.73;;;6.10;99.90;;;;;;6196625;23;20001;-89
2021/10/22 03:01:36;;;;;;;10.07;2.25;;;6.10;99.90;;;;;;6221134;23;20309;-89
2021/10/22 03:04:04;;;;;;;9.00;1.85;;;6.20;99.90;;;;;;6248400;23;19992;-90
2021/10/22 03:06:30;;;;;;;8.52;2.00;;;6.20;99.90;;;;;;6221062;23;20003;-91
2021/10/22 03:08:57;;;;;;;7.82;2.13;;;6.20;99.90;;;;;;6221501;23;19992;-90
2021/10/22 03:11:23;;;;;;;9.63;2.58;;;6.10;99.90;;;;;;6221400;23;20134;-91
2021/10/22 03:13:51;;;;;;;9.88;2.20;;;6.10;99.90;;;;;;6221597;23;19996;-91
2021/10/22 03:16:18;;;;;;;8.93;2.45;;;6.10;99.90;;;;;;6171985;23;20004;-90
2021/10/22 03:18:48;;;;;;;10.98;2.42;;;6.10;99.90;;;;;;6247772;23;20007;-91
2021/10/22 03:21:16;;;;;;;10.15;2.45;;;6.10;99.90;;;;;;6196657;23;20032;-90
2021/10/22 03:23:43;;;;;;;7.63;2.17;;;6.10;99.90;;;;;;6248018;23;19996;-91
2021/10/22 03:26:09;;;;;;;8.48;2.97;;;6.10;99.90;;;;;;6221175;23;20000;-90
2021/10/22 03:28:36;;;;;;;8.05;2.38;;;6.10;99.90;;;;;;6196698;23;20069;-89
2021/10/22 03:31:04;;;;;;;7.80;1.95;;;6.10;99.90;;;;;;6220330;23;20010;-90
2021/10/22 03:33:36;;;;;;;12.35;3.60;;;6.00;99.90;;;;;;6221254;23;20019;-90
2021/10/22 03:36:05;;;;;;;14.45;2.88;;;6.00;99.90;;;;;;6246344;23;20016;-91
2021/10/22 03:38:32;;;;;;;10.50;2.50;;;6.00;99.90;;;;;;6222226;23;20014;-89
2021/10/22 03:40:58;;;;;;;11.85;2.40;;;6.00;99.90;;;;;;6196459;23;20389;-90
2021/10/22 03:43:28;;;;;;;14.63;3.90;;;6.00;99.90;;;;;;6171612;23;19996;-89
2021/10/22 03:45:57;;;;;;;11.10;3.53;;;6.00;99.90;;;;;;6247923;23;20000;-91
2021/10/22 03:48:23;;;;;;;9.63;2.83;;;6.00;99.90;;;;;;6196532;23;20000;-91
2021/10/22 03:50:51;;;;;;;12.05;3.13;;;6.00;99.90;;;;;;6247828;23;20452;-90
2021/10/22 03:53:17;;;;;;;12.02;3.15;;;6.00;99.90;;;;;;6195990;23;19996;-89
2021/10/22 03:55:48;;;;;;;12.35;3.20;;;5.90;99.90;;;;;;6219201;23;19996;-92
2021/10/22 03:58:14;;;;;;;13.30;4.30;;;5.90;99.90;;;;;;6221869;23;20419;-89
2021/10/22 04:00:41;;;;;;;12.55;3.42;;;6.00;99.90;;;;;;6245834;23;20004;-90
2021/10/22 04:03:08;;;;;;;8.77;3.15;;;5.90;99.90;;;;;;6195595;23;20000;-90
2021/10/22 04:05:34;;;;;;;8.30;3.00;;;6.00;99.90;;;;;;6195511;23;20004;-90
2021/10/22 04:08:06;;;;;;;13.60;3.35;;;6.00;99.90;;;;;;6195573;23;20480;-90
2021/10/22 04:10:34;;;;;;;6.90;2.58;;;6.00;99.90;;;;;;6220983;23;20393;-89
2021/10/22 04:13:03;;;;;;;11.77;3.70;;;6.00;99.90;;;;;;6220232;23;20000;-91
2021/10/22 04:15:30;;;;;;;12.25;4.40;;;5.90;99.90;;;;;;6195710;23;20316;-90
2021/10/22 04:17:57;;;;;;;12.40;3.70;;;6.00;99.90;;;;;;6196092;23;20004;-90
2021/10/22 04:20:26;;;;;;;9.95;3.85;;;6.00;99.90;;;;;;6247199;23;19996;-89
2021/10/22 04:23:00;;;;;;;15.10;4.22;;;6.00;99.90;;;;;;6247397;23;19999;-90
2021/10/22 04:25:34;;;;;;;12.35;3.75;;;6.10;99.90;;;;;;6244171;23;20423;-89
2021/10/22 04:27:59;;;;;;;;;;;6.10;99.90;;;;;;6221447;23;20087;-90
2021/10/22 04:30:27;;;;;;;18.70;4.65;;;6.10;99.90;;;;;;6194997;23;19931;-90
2021/10/22 04:32:54;;;;;;;9.82;4.15;;;6.10;99.90;;;;;;6196003;23;20008;-91
2021/10/22 04:35:20;;;;;;;11.90;3.95;;;6.20;99.90;;;;;;6195459;23;20001;-90
2021/10/22 04:40:42;;;;;;;13.07;4.05;;;6.30;99.90;;;;;;6221685;23;20070;-90
2021/10/22 04:43:12;;;;;;;12.60;3.97;;;6.30;99.90;;;;;;6191285;23;20016;-91
2021/10/22 04:45:40;;;;;;;9.93;3.53;;;6.30;99.90;;;;;;6190659;23;20004;-90
2021/10/22 04:48:09;;;;;;;12.93;3.90;;;6.40;99.90;;;;;;6189841;23;20023;-90
2021/10/22 04:50:41;;;;;;;15.85;4.55;;;6.40;99.90;;;;;;6190282;23;20005;-90
2021/10/22 04:53:08;;;;;;;9.40;3.75;;;6.40;99.90;;;;;;6166339;23;20086;-92
2021/10/22 04:55:34;;;;;;;12.43;3.50;;;6.40;99.90;;;;;;6190364;23;20000;-91
2021/10/22 04:58:13;;;;;;;13.20;4.25;;;6.50;99.90;;;;;;6190855;23;20000;-91
2021/10/22 05:00:46;;;;;;;14.57;5.40;;;6.50;99.90;;;;;;6165568;23;20004;-90
2021/10/22 05:03:13;;;;;;;;;;;6.60;99.90;;;;;;6217491;23;20001;-90
2021/10/22 05:05:45;;;;;;;14.73;4.32;;;6.60;99.90;;;;;;6190819;23;19900;-90
2021/10/22 05:08:28;;;;;;;11.17;2.90;;;6.60;99.90;;;;;;6217253;23;20088;-92
2021/10/22 05:10:56;;;;;;;20.33;5.00;;;6.60;99.90;;;;;;6190007;23;20247;-91
2021/10/22 05:13:24;;;;;;;10.40;4.53;;;6.50;99.90;;;;;;6190693;23;19993;-91
2021/10/22 05:15:54;;;;;;;9.55;3.50;;;6.50;99.90;;;;;;6165827;23;20001;-91
2021/10/22 05:18:21;;;;;;;15.07;4.18;;;6.60;99.90;;;;;;6217120;23;20072;-91
2021/10/22 05:20:46;;;;;;;11.40;3.25;;;6.60;99.90;;;;;;6190591;23;19993;-92
2021/10/22 05:23:12;;;;;;;14.27;4.50;;;6.60;99.90;;;;;;6190578;23;20007;-91
2021/10/22 05:25:38;;;;;;;11.60;3.05;;;6.60;99.90;;;;;;6189530;23;19996;-93
2021/10/22 05:28:19;;;;;;;10.35;3.22;;;6.60;99.90;;;;;;6165210;23;20009;-92
2021/10/22 05:30:49;;;;;;;14.00;3.60;;;6.60;99.90;;;;;;6189091;23;20090;-93
2021/10/22 05:33:16;;;;;;;9.27;3.10;;;6.50;99.90;;;;;;6191507;23;20004;-92
2021/10/22 05:35:48;;;;;;;9.00;4.05;;;6.50;99.90;;;;;;6165666;23;20420;-94
2021/10/22 05:38:15;;;;;;;12.70;3.58;;;6.50;99.90;;;;;;6190819;23;20012;-93
2021/10/22 05:40:44;;;;;;;10.52;4.28;;;6.40;99.90;;;;;;6165562;23;20457;-93
2021/10/22 05:43:10;;;;;;;8.50;3.55;;;6.40;99.90;;;;;;6191229;23;20317;-93
2021/10/22 05:45:39;;;;;;;16.27;4.10;;;6.30;99.90;;;;;;6191619;23;20001;-92
2021/10/22 05:48:09;;;;;;;17.45;4.47;;;6.30;99.90;;;;;;6192375;23;20413;-93
2021/10/22 05:50:44;;;;;;;14.30;3.85;;;6.30;99.90;;;;;;6192302;23;20004;-94
2021/10/22 05:53:45;;;;;;;17.48;4.32;;;6.30;99.90;;;;;;6191193;23;20079;-93
2021/10/22 05:56:12;;;;;;;12.63;3.55;;;6.40;99.90;;;;;;6167797;23;20009;-94
2021/10/22 05:58:46;;;;;;;13.55;3.53;;;6.40;99.90;;;;;;6167377;23;20086;-93
2021/10/22 06:01:12;;;;;;;16.38;4.13;;;6.50;99.90;;;;;;6193744;23;19996;-91
2021/10/22 06:03:40;;;;;;;15.68;3.75;;;6.60;99.90;;;;;;6167337;23;20054;-92
2021/10/22 06:06:07;;;;;;;16.08;3.75;;;6.60;99.90;;;;;;6167045;23;20092;-91
2021/10/22 06:08:43;;;;;;;12.93;3.50;;;6.70;99.90;;;;;;6191214;23;20334;-92
2021/10/22 06:11:12;;;;;;;14.40;3.92;;;6.80;99.90;;;;;;6167718;23;20004;-93
2021/10/22 06:13:45;;;;;;;11.48;3.40;;;6.90;99.90;;;;;;6166705;23;20008;-93
2021/10/22 06:16:17;;;;;;;9.45;3.20;;;7.00;99.90;;;;;;6191804;23;20004;-90
2021/10/22 06:18:52;;;;;;;11.98;3.05;;;7.00;99.90;;;;;;6218531;23;20003;-92
2021/10/22 06:21:33;;;;;;;12.40;3.80;;;7.10;99.90;;;;;;6188505;23;20000;-93
2021/10/22 06:24:04;;;;;;;14.07;3.92;;;7.10;99.90;;;;;;6189460;23;19996;-92
2021/10/22 06:26:42;;;;;;;17.63;4.53;;;7.10;99.90;;;;;;6214640;23;20011;-93
2021/10/22 06:29:31;;;;;;;14.55;3.97;;;7.10;99.90;;;;;;6189634;23;20031;-92
2021/10/22 06:32:02;;;;;;;14.38;4.05;;;7.10;99.90;;;;;;6189191;23;20004;-94
2021/10/22 06:34:31;;;;;;;15.07;4.13;;;7.10;99.90;;;;;;6189741;23;19992;-91
2021/10/22 06:37:03;;;;;;;15.23;4.43;;;7.10;99.90;;;;;;6216040;23;20004;-92
2021/10/22 06:39:30;;;;;;;15.75;4.22;;;7.00;99.90;;;;;;6190189;23;20007;-91
2021/10/22 06:41:58;;;;;;;14.60;4.18;;;7.00;99.90;;;;;;6175442;23;20012;-91
2021/10/22 06:44:29;;;;;;;14.00;4.05;;;7.00;99.90;;;;;;6218595;23;20010;-92
2021/10/22 06:46:56;;;;;;;16.15;4.68;;;7.00;99.90;;;;;;6219860;23;20443;-92
2021/10/22 06:49:22;;;;;;;15.13;5.32;;;6.90;99.90;;;;;;6170753;23;20006;-92
2021/10/22 06:51:48;;;;;;;13.82;4.57;;;7.00;99.90;;;;;;6221040;23;20034;-92
2021/10/22 06:54:15;;;;;;;10.45;3.92;;;7.00;99.90;;;;;;6246453;23;20004;-92
2021/10/22 06:56:42;;;;;;;14.25;5.00;;;7.00;99.90;;;;;;6245636;23;20008;-93
2021/10/22 06:59:08;;;;;;;15.18;5.00;;;7.00;99.90;;;;;;6219851;23;20016;-91
2021/10/22 07:01:34;;;;;;;16.73;4.78;;;7.00;99.90;;;;;;6220351;23;19999;-91
2021/10/22 07:04:01;;;;;;;13.60;4.72;;;7.00;99.90;;;;;;6219963;23;20352;-93
2021/10/22 07:09:19;;;;;;;13.20;4.53;;;7.10;99.90;;;;;;6245330;23;20065;-93
2021/10/22 07:11:50;;;;;;;11.95;4.18;;;7.10;99.90;;;;;;6193532;23;20444;-93
2021/10/22 07:14:20;;;;;;;18.70;5.32;;;7.10;99.90;;;;;;6219064;23;20004;-94
2021/10/22 07:16:45;;;;;;;12.25;4.30;;;7.10;99.90;;;;;;6218815;23;20020;-93
2021/10/22 07:19:11;;;;;;;14.07;4.38;;;7.10;99.90;;;;;;6218245;23;20007;-93
2021/10/22 07:21:47;;;;;;;14.02;5.22;;;7.10;99.90;;;;;;6218198;23;19999;-93
2021/10/22 07:24:31;;;;;;;15.52;5.68;;;7.10;99.90;;;;;;6195887;23;20095;-93
2021/10/22 07:27:37;;;;;;;15.82;5.75;;;7.10;99.90;;;;;;6245435;23;20088;-94
2021/10/22 07:30:03;;;;;;;17.80;5.00;;;7.10;99.90;;;;;;6245463;23;20030;-93
2021/10/22 07:32:30;;;;;;;13.43;4.53;;;7.10;99.90;;;;;;6217662;23;20071;-94
2021/10/22 07:35:02;;;;;;;12.20;4.90;;;7.10;99.90;;;;;;6219499;23;20007;-94
2021/10/22 07:37:29;;;;;;;14.63;5.68;;;7.10;99.90;;;;;;6195729;23;20068;-94
2021/10/22 07:39:57;;;;;;;17.85;5.05;;;7.30;99.90;;;;;;6193727;23;20095;-93
2021/10/22 07:42:26;;;;;;;14.38;4.82;;;7.40;99.90;;;;;;6218064;23;20016;-95
2021/10/22 07:45:29;;;;;;;12.90;4.43;;;7.40;99.90;;;;;;6221179;23;19997;-93
2021/10/22 07:48:00;;;;;;;16.60;4.95;;;7.50;99.90;;;;;;6243613;23;20409;-95
2021/10/22 07:50:45;;;;;;;13.68;4.78;;;7.60;99.90;;;;;;6165287;23;20001;-94
2021/10/22 07:56:18;;;;;;;15.10;4.82;;;7.70;99.90;;;;;;6154045;23;20426;-95
2021/10/22 07:58:54;;;;;;;17.63;4.35;;;7.80;99.90;;;;;;6241102;23;19996;-94
2021/10/22 08:01:25;;;;;;;14.77;4.22;;;7.90;99.90;;;;;;6248218;23;19996;-96
2021/10/22 08:04:03;;;;;;;11.35;3.63;;;8.00;99.90;;;;;;6248277;23;20008;-95
2021/10/22 08:06:38;;;;;;;19.67;4.88;;;8.00;99.90;;;;;;6220456;23;20014;-95
2021/10/22 08:09:36;;;;;;;12.88;4.25;;;8.10;99.90;;;;;;6223068;23;20335;-96
2021/10/22 08:12:16;;;;;;;17.30;4.68;;;8.20;99.90;;;;;;6140828;23;20024;-94
2021/10/22 08:17:44;;;;;;;13.35;3.33;;;8.40;99.90;;;;;;6250281;23;20147;-95
2021/10/22 08:20:48;;;;;;;13.60;4.35;;;8.50;99.90;;;;;;6249867;23;19996;-95
2021/10/22 08:23:35;;;;;;;16.67;4.45;;;8.50;99.90;;;;;;6204314;23;20027;-95
2021/10/22 08:27:04;;;;;;;16.50;4.05;;;8.50;99.90;;;;;;6142734;23;20004;-95
2021/10/22 08:30:00;;;;;;;;;;;;;;;;;;;;;
2021/10/22 08:32:34;;;;;;;13.15;4.15;;;8.50;99.90;;;;;;6141372;23;20028;-95
2021/10/22 08:35:50;;;;;;;;;;;;;;;;;;;;;
2021/10/22 08:38:41;;;;;;;15.35;5.07;;;8.60;99.90;;;;;;6149868;23;20022;-95
2021/10/22 08:42:10;;;;;;;14.13;4.22;;;8.60;99.90;;;;;;6223393;23;20012;-94
2021/10/22 08:48:32;;;;;;;;;;;;;;;;;;;;;
2021/10/22 08:51:01;;;;;;;13.05;4.03;;;9.20;99.90;;;;;;6228480;23;20042;-93
2021/10/22 08:53:28;;;;;;;14.13;4.35;;;9.20;99.90;;;;;;6223754;23;20015;-94
2021/10/22 08:56:00;;;;;;;10.13;3.33;;;9.20;99.90;;;;;;6229817;23;20046;-95
2021/10/22 08:58:27;;;;;;;14.38;5.45;;;9.20;99.90;;;;;;6233284;23;20000;-93
2021/10/22 09:01:11;;;;;;;12.30;3.75;;;9.20;99.90;;;;;;6227814;23;19992;-93
2021/10/22 09:03:43;;;;;;;11.95;3.45;;;9.20;99.90;;;;;;6230282;23;19996;-94
2021/10/22 09:06:22;;;;;;;13.07;4.47;;;9.30;99.90;;;;;;6203202;23;20012;-95
2021/10/22 09:09:03;;;;;;;12.35;3.53;;;9.40;99.90;;;;;;6224526;23;20000;-94
2021/10/22 09:11:34;;;;;;;12.73;3.70;;;9.50;99.90;;;;;;6199638;23;20008;-93
2021/10/22 09:14:18;;;;;;;13.43;3.30;;;9.70;99.90;;;;;;6223737;23;19996;-94
2021/10/22 09:17:14;;;;;;;8.77;3.75;;;9.80;99.90;;;;;;6250657;23;20000;-96
2021/10/22 09:19:55;;;;;;;15.48;4.28;;;9.80;99.90;;;;;;6252298;23;20067;-95
2021/10/22 09:22:28;;;;;;;11.38;3.40;;;9.90;99.90;;;;;;6202334;23;20000;-95
2021/10/22 09:28:15;;;;;;;9.65;3.10;;;10.30;99.90;;;;;;6234976;23;20428;-94
2021/10/22 09:30:43;;;;;;;7.53;2.30;;;10.20;99.90;;;;;;6201843;23;20000;-94
2021/10/22 09:33:12;;;;;;;9.45;2.78;;;10.20;99.90;;;;;;6251017;23;19996;-91
2021/10/22 09:36:23;;;;;;;9.00;2.90;;;10.30;99.90;;;;;;6223599;23;20088;-92
2021/10/22 09:39:13;;;;;;;12.13;2.70;;;10.20;99.90;;;;;;6222468;23;20004;-94
2021/10/22 09:42:03;;;;;;;10.90;2.63;;;10.00;99.90;;;;;;6249730;22;20031;-92
2021/10/22 09:44:43;;;;;;;12.23;2.05;;;9.90;99.90;;;;;;6198988;23;20011;-92
2021/10/22 09:47:32;;;;;;;10.07;2.88;;;9.80;99.90;;;;;;6228366;23;20055;-93
2021/10/22 09:50:10;;;;;;;9.57;2.10;;;9.80;99.90;;;;;;6223529;23;20019;-93
2021/10/22 09:52:44;;;;;;;14.80;2.95;;;9.80;99.90;;;;;;6222749;23;20035;-93
2021/10/22 09:55:31;;;;;;;7.85;2.10;;;9.80;99.90;;;;;;6222473;23;20057;-93
2021/10/22 09:58:26;;;;;;;7.40;2.60;;;9.80;99.90;;;;;;6222474;23;20428;-94
2021/10/22 10:01:08;;;;;;;12.30;2.30;;;9.80;99.90;;;;;;6195663;23;20007;-94
2021/10/22 10:03:46;;;;;;;10.57;1.98;;;9.80;99.90;;;;;;6244327;23;20396;-95
2021/10/22 10:06:20;;;;;;;10.35;2.13;;;9.70;99.90;;;;;;6249145;23;20039;-93
2021/10/22 10:08:52;;;;;;;11.55;2.03;;;9.70;99.90;;;;;;6249140;23;19999;-95
2021/10/22 10:11:19;;;;;;;14.52;2.95;;;9.60;99.90;;;;;;6197954;23;20086;-93
2021/10/22 10:13:49;;;;;;;9.57;2.20;;;9.60;99.90;;;;;;6231908;23;20008;-93
2021/10/22 10:19:55;;;;;;;14.23;2.42;;;9.60;99.90;;;;;;6098405;23;20007;-93
2021/10/22 10:22:31;;;;;;;9.93;2.63;;;9.50;99.90;;;;;;6123157;23;20011;-94
2021/10/22 10:25:12;;;;;;;13.13;2.67;;;9.50;99.90;;;;;;6222269;23;20058;-95
2021/10/22 10:27:57;;;;;;;9.45;2.42;;;9.30;99.90;;;;;;6223647;23;20014;-94
2021/10/22 10:30:39;;;;;;;13.07;2.70;;;9.20;99.90;;;;;;6197871;23;20091;-93
2021/10/22 10:33:08;;;;;;;10.10;3.63;;;9.20;99.90;;;;;;6222281;23;20053;-94
2021/10/22 10:35:44;;;;;;;14.80;3.00;;;9.10;99.90;;;;;;6196653;23;20087;-94
2021/10/22 10:38:13;;;;;;;13.68;2.58;;;9.10;99.90;;;;;;6194439;23;20436;-91
2021/10/22 10:40:46;;;;;;;11.35;2.95;;;9.10;99.90;;;;;;6221566;23;20141;-94
2021/10/22 10:43:28;;;;;;;13.05;3.03;;;9.10;99.90;;;;;;6223669;23;20019;-92
2021/10/22 10:46:06;;;;;;;10.90;2.72;;;9.00;99.90;;;;;;6222333;23;20295;-92
2021/10/22 10:49:05;;;;;;;14.93;3.20;;;9.10;99.90;;;;;;6221839;23;20007;-93
2021/10/22 10:51:37;;;;;;;9.77;2.72;;;9.10;99.90;;;;;;6212851;23;20004;-93
2021/10/22 10:54:25;;;;;;;13.98;2.67;;;9.20;99.90;;;;;;6222357;23;20004;-93
2021/10/22 10:57:37;;;;;;;13.00;2.92;;;9.30;99.90;;;;;;6223183;23;20000;-94
2021/10/22 11:00:53;;;;;;;13.77;2.92;;;9.50;99.90;;;;;;6222037;23;20004;-93
2021/10/22 11:07:29;;;;;;;12.98;2.35;;;10.20;99.90;;;;;;6090228;23;20006;-93
2021/10/22 11:10:47;;;;;;;12.45;2.25;;;10.00;99.90;;;;;;6089531;23;20005;-93
2021/10/22 11:13:44;;;;;;;12.80;3.28;;;9.90;99.90;;;;;;6097358;23;20006;-93
2021/10/22 11:17:09;;;;;;;;;;;;;;;;;;;;;
2021/10/22 11:19:48;;;;;;;11.70;2.30;;;9.90;99.90;;;;;;5982322;24;20071;-95
2021/10/22 11:22:22;;;;;;;13.23;3.03;;;10.00;99.90;;;;;;5959744;24;20012;-94
2021/10/22 11:25:17;;;;;;;12.48;2.35;;;10.10;99.90;;;;;;5961655;24;20004;-94
2021/10/22 11:28:09;;;;;;;13.80;2.28;;;11.10;99.90;;;;;;5960070;24;20011;-94
2021/10/22 11:30:59;;;;;;;11.15;2.10;;;12.30;99.90;;;;;;6045041;23;20021;-94
2021/10/22 11:33:34;;;;;;;12.57;2.22;;;13.10;99.90;;;;;;6077804;23;20016;-94
2021/10/22 11:36:29;;;;;;;12.65;2.30;;;13.40;99.90;;;;;;6077384;23;20095;-94
2021/10/22 11:38:59;;;;;;;11.95;2.00;;;13.90;99.90;;;;;;6085760;23;20083;-93
2021/10/22 11:41:28;;;;;;;11.32;1.80;;;14.50;99.90;;;;;;6201102;23;20038;-94
2021/10/22 11:44:32;;;;;;;10.75;2.47;;;14.30;99.90;;;;;;6203146;23;20000;-94
2021/10/22 11:47:15;;;;;;;12.38;2.03;;;14.60;99.90;;;;;;6226057;23;20007;-96
2021/10/22 11:49:43;;;;;;;10.80;1.73;;;15.00;99.90;;;;;;6250357;23;19997;-93
2021/10/22 11:52:29;;;;;;;11.18;2.25;;;15.00;99.90;;;;;;6200026;23;20000;-94
2021/10/22 11:55:18;;;;;;;10.35;1.50;;;14.40;99.90;;;;;;6254263;23;19996;-96
2021/10/22 11:57:55;;;;;;;;;;;;;;;;;;;;;
2021/10/22 12:00:53;;;;;;;12.23;2.10;;;13.40;99.90;;;;;;6255405;23;20015;-95
2021/10/22 12:03:55;;;;;;;8.10;1.80;;;13.20;99.90;;;;;;6199405;23;20000;-93
2021/10/22 12:07:10;;;;;;;10.30;1.60;;;13.30;99.90;;;;;;6160340;23;20070;-93
2021/10/22 12:10:16;;;;;;;9.98;1.65;;;13.90;99.90;;;;;;6183754;23;19996;-96
2021/10/22 12:13:49;;;;;;;7.72;1.60;;;14.60;99.90;;;;;;6225144;23;20068;-96
2021/10/22 12:16:58;;;;;;;8.50;1.67;;;14.30;99.90;;;;;;6250952;23;20447;-94
2021/10/22 12:19:34;;;;;;;7.80;1.75;;;13.80;99.90;;;;;;6254218;23;20012;-95
2021/10/22 12:26:56;;;;;;;9.73;2.30;;;13.30;99.90;;;;;;6104891;23;20003;-94
2021/10/22 12:33:10;;;;;;;8.90;1.75;;;13.00;99.90;;;;;;6091833;23;19999;-95
2021/10/22 12:36:13;;;;;;;10.02;1.73;;;12.90;99.90;;;;;;5988315;24;20000;-94
2021/10/22 12:39:31;;;;;;;;;;;;;;;;;;;;;
2021/10/22 12:41:58;;;;;;;12.35;2.08;;;12.70;99.90;;;;;;5989528;24;20032;-92
2021/10/22 12:44:32;;;;;;;9.43;1.63;;;12.50;99.90;;;;;;6025636;23;19998;-93
2021/10/22 12:47:22;;;;;;;7.85;1.77;;;12.40;99.90;;;;;;6051345;23;20006;-95
2021/10/22 12:49:55;;;;;;;9.85;1.90;;;12.30;99.90;;;;;;6081671;23;20008;-95
2021/10/22 12:52:35;;;;;;;10.10;1.73;;;12.20;99.90;;;;;;6223276;23;20030;-96
2021/10/22 12:55:39;;;;;;;10.93;1.77;;;12.20;99.90;;;;;;6250459;23;20007;-95
2021/10/22 12:58:24;;;;;;;8.30;1.95;;;12.20;99.90;;;;;;6225791;23;20004;-94
2021/10/22 13:01:17;;;;;;;10.57;1.88;;;12.20;99.90;;;;;;6224694;23;20064;-96
2021/10/22 13:04:10;;;;;;;12.50;2.13;;;12.10;99.90;;;;;;6224685;23;20024;-96
2021/10/22 13:13:35;;;;;;;7.95;1.92;;;11.30;99.90;;;;;;6261139;23;20023;-95
2021/10/22 13:21:33;;;;;;;5.18;1.80;;;11.00;99.90;;;;;;6226709;23;20019;-94
2021/10/22 13:23:59;;;;;;;9.52;2.03;;;11.00;99.90;;;;;;6221736;23;20000;-94
2021/10/22 13:26:27;;;;;;;8.32;2.00;;;10.90;99.90;;;;;;6249126;23;20000;-95
2021/10/22 13:28:56;;;;;;;9.63;1.75;;;10.90;99.90;;;;;;6222667;23;20004;-95
2021/10/22 13:31:28;;;;;;;8.70;1.75;;;10.80;99.90;;;;;;6223110;23;20395;-94
2021/10/22 13:33:55;;;;;;;5.13;1.25;;;10.80;99.90;;;;;;6198180;23;20015;-95
2021/10/22 13:36:24;;;;;;;6.80;1.48;;;10.70;99.90;;;;;;6221630;23;20069;-95
2021/10/22 13:38:52;;;;;;;6.32;1.60;;;10.70;99.90;;;;;;6223530;23;20011;-95
2021/10/22 13:41:22;;;;;;;9.85;2.00;;;10.70;99.90;;;;;;6222333;22;20016;-94
2021/10/22 13:43:50;;;;;;;8.50;1.48;;;10.60;99.90;;;;;;6223697;23;19997;-94
2021/10/22 13:46:16;;;;;;;6.47;1.50;;;10.60;99.90;;;;;;6248332;23;20079;-94
2021/10/22 13:48:44;;;;;;;6.10;1.35;;;10.50;99.90;;;;;;6197399;23;20031;-95
2021/10/22 13:51:13;;;;;;;5.70;1.45;;;10.50;99.90;;;;;;6196282;23;20033;-94
2021/10/22 13:53:47;;;;;;;5.88;1.58;;;10.30;99.90;;;;;;6250249;23;20000;-95
2021/10/22 13:56:21;;;;;;;5.95;1.00;;;10.30;99.90;;;;;;6222327;23;20095;-95
2021/10/22 13:58:47;;;;;;;3.25;1.00;;;10.20;99.90;;;;;;6223128;23;19996;-95
2021/10/22 14:01:14;;;;;;;3.55;0.70;;;10.20;99.90;;;;;;6221388;23;19996;-95
2021/10/22 14:03:40;;;;;;;4.57;1.00;;;10.10;99.90;;;;;;6221626;23;20008;-94
2021/10/22 14:06:07;;;;;;;4.75;1.08;;;10.00;99.90;;;;;;6221896;23;20012;-94
2021/10/22 14:08:35;;;;;;;2.47;0.55;;;10.00;99.90;;;;;;6246983;23;20292;-94
2021/10/22 14:11:09;;;;;;;2.65;0.85;;;10.00;99.90;;;;;;6219382;23;19992;-95
2021/10/22 14:13:48;;;;;;;3.05;0.82;;;10.00;99.90;;;;;;6219846;23;20004;-95
2021/10/22 14:16:43;;;;;;;3.33;0.70;;;10.00;99.90;;;;;;6241149;23;20015;-95
2021/10/22 14:30:24;;;;;;;4.38;0.90;;;10.00;99.90;;;;;;6093895;23;20013;-94
2021/10/22 14:32:56;;;;;;;3.50;0.98;;;10.00;99.90;;;;;;6070636;23;20085;-95
2021/10/22 14:35:25;;;;;;;4.85;1.35;;;10.10;99.90;;;;;;6069905;23;20012;-95